Time;durP1;ratioP1;P1;durP2;ratioP2;P2;SDS_P1;SDS_P2;PMS_P1;PMS_P2;Temp;Humidity;BMP_temperature;BMP_pressure;BME280_temperature;BME280_humidity;BME280_pressure;Samples;Min_cycle;Max_cycle;Signal;HPM_P1;HPM_P2
2022/08/11 00:01:45;;;;;;;3.40;1.90;;;;;;;;;;4822744;29;20099;-46
2022/08/11 00:04:14;;;;;;;4.00;2.15;;;;;;;;;;4823667;29;20054;-48
2022/08/11 00:06:46;;;;;;;4.40;2.38;;;;;;;;;;4821853;29;20074;-45
2022/08/11 00:09:20;;;;;;;2.53;1.92;;;;;;;;;;4823518;29;20054;-46
2022/08/11 00:11:53;;;;;;;3.88;2.10;;;;;;;;;;4823540;29;20522;-45
2022/08/11 00:14:27;;;;;;;3.38;1.88;;;;;;;;;;4823308;29;20444;-47
2022/08/11 00:17:26;;;;;;;2.72;1.80;;;;;;;;;;4823250;29;20059;-45
2022/08/11 00:20:01;;;;;;;4.07;2.00;;;;;;;;;;4823364;29;20503;-45
2022/08/11 00:22:46;;;;;;;4.07;1.70;;;;;;;;;;4823025;29;20051;-44
2022/08/11 00:25:15;;;;;;;3.47;2.05;;;;;;;;;;4823298;29;20054;-45
2022/08/11 00:27:43;;;;;;;6.03;2.05;;;;;;;;;;4823172;29;20038;-47
2022/08/11 00:30:12;;;;;;;3.45;1.70;;;;;;;;;;4823175;29;20571;-45
2022/08/11 00:32:42;;;;;;;3.70;2.08;;;;;;;;;;4823252;29;20460;-45
2022/08/11 00:35:16;;;;;;;4.00;2.50;;;;;;;;;;4823212;29;20061;-46
2022/08/11 00:38:06;;;;;;;3.17;2.00;;;;;;;;;;4823373;29;20046;-47
2022/08/11 00:40:44;;;;;;;6.32;2.28;;;;;;;;;;4823034;29;20464;-47
2022/08/11 00:43:38;;;;;;;4.32;1.95;;;;;;;;;;4823180;29;20043;-45
2022/08/11 00:46:27;;;;;;;3.35;2.10;;;;;;;;;;4823045;29;20043;-46
2022/08/11 00:49:18;;;;;;;4.03;2.10;;;;;;;;;;4830805;29;20046;-47
2022/08/11 00:51:58;;;;;;;4.38;2.05;;;;;;;;;;4841242;29;20042;-45
2022/08/11 00:54:37;;;;;;;4.95;2.05;;;;;;;;;;4841201;29;20128;-46
2022/08/11 00:57:21;;;;;;;3.63;2.20;;;;;;;;;;4841159;29;20116;-42
2022/08/11 01:00:16;;;;;;;2.80;2.00;;;;;;;;;;4840927;29;20146;-45
2022/08/11 01:03:07;;;;;;;3.03;2.03;;;;;;;;;;4841030;29;20053;-45
2022/08/11 01:05:41;;;;;;;9.68;2.00;;;;;;;;;;4839980;29;20412;-44
2022/08/11 01:08:12;;;;;;;3.20;2.17;;;;;;;;;;4840925;29;20045;-45
2022/08/11 01:10:57;;;;;;;4.50;2.08;;;;;;;;;;4840891;29;20736;-45
2022/08/11 01:13:49;;;;;;;5.60;2.10;;;;;;;;;;4843184;29;20046;-46
2022/08/11 01:16:45;;;;;;;3.92;2.00;;;;;;;;;;4844236;29;20049;-44
2022/08/11 01:19:49;;;;;;;3.20;1.90;;;;;;;;;;4835911;29;20095;-44
2022/08/11 01:22:51;;;;;;;3.10;2.25;;;;;;;;;;4843768;29;20046;-47
2022/08/11 01:25:43;;;;;;;3.47;2.45;;;;;;;;;;4844528;29;20046;-45
2022/08/11 01:28:46;;;;;;;2.70;1.85;;;;;;;;;;4821392;29;20060;-46
2022/08/11 01:31:44;;;;;;;5.70;1.90;;;;;;;;;;4840977;29;20053;-48
2022/08/11 01:34:26;;;;;;;3.55;1.92;;;;;;;;;;4843890;29;20038;-46
2022/08/11 01:37:55;;;;;;;4.18;2.00;;;;;;;;;;4844091;29;20443;-45
2022/08/11 01:40:29;;;;;;;5.38;2.38;;;;;;;;;;4841283;29;20110;-44
2022/08/11 01:46:28;;;;;;;4.18;2.00;;;;;;;;;;4843759;29;20054;-46
2022/08/11 01:49:02;;;;;;;5.90;2.10;;;;;;;;;;4835462;29;20053;-45
2022/08/11 01:52:01;;;;;;;;;;;;;;;;;;4825966;29;20074;-50
2022/08/11 01:54:44;;;;;;;3.70;2.00;;;;;;;;;;4823973;29;20370;-45
2022/08/11 01:57:43;;;;;;;4.65;2.10;;;;;;;;;;4824387;29;20073;-47
2022/08/11 02:00:19;;;;;;;3.88;2.00;;;;;;;;;;4823685;29;20054;-45
2022/08/11 02:02:58;;;;;;;3.17;1.90;;;;;;;;;;4824102;29;20076;-47
2022/08/11 02:05:51;;;;;;;8.13;2.25;;;;;;;;;;4824543;29;20075;-45
2022/08/11 02:08:50;;;;;;;5.70;3.13;;;;;;;;;;4820801;29;20058;-44
2022/08/11 02:11:29;;;;;;;3.58;2.50;;;;;;;;;;4825278;29;20046;-44
2022/08/11 02:14:06;;;;;;;2.72;1.98;;;;;;;;;;4825105;29;20145;-45
2022/08/11 02:16:54;;;;;;;3.70;2.28;;;;;;;;;;4824749;29;20039;-45
2022/08/11 02:25:57;;;;;;;3.22;2.08;;;;;;;;;;4824457;29;20448;-45
2022/08/11 02:28:58;;;;;;;7.38;2.50;;;;;;;;;;4824623;29;20121;-45
2022/08/11 02:34:47;;;;;;;3.58;2.03;;;;;;;;;;4824710;29;20518;-52
2022/08/11 02:37:31;;;;;;;6.18;2.72;;;;;;;;;;4824641;29;20049;-45
2022/08/11 02:40:14;;;;;;;3.40;1.80;;;;;;;;;;4824909;29;20443;-45
2022/08/11 02:43:05;;;;;;;4.68;2.50;;;;;;;;;;4823439;29;20050;-44
2022/08/11 02:45:48;;;;;;;5.65;2.92;;;;;;;;;;4824776;29;20046;-46
2022/08/11 02:51:30;;;;;;;4.20;2.35;;;;;;;;;;4842949;29;20042;-44
2022/08/11 02:54:07;;;;;;;2.95;1.90;;;;;;;;;;4842614;29;20514;-46
2022/08/11 02:56:55;;;;;;;5.32;2.25;;;;;;;;;;4842566;29;20041;-45
2022/08/11 03:02:38;;;;;;;9.05;5.07;;;;;;;;;;4842531;29;20069;-46
2022/08/11 03:05:10;;;;;;;3.05;2.30;;;;;;;;;;4842879;29;20072;-49
2022/08/11 03:08:17;;;;;;;6.28;3.13;;;;;;;;;;4842404;29;20549;-47
2022/08/11 03:17:02;;;;;;;5.13;2.45;;;;;;;;;;4842282;29;20042;-45
2022/08/11 03:19:45;;;;;;;3.08;1.92;;;;;;;;;;4842358;29;20129;-45
2022/08/11 03:22:24;;;;;;;3.53;2.20;;;;;;;;;;4842377;29;20062;-46
2022/08/11 03:25:03;;;;;;;8.90;4.53;;;;;;;;;;4842027;29;20046;-46
2022/08/11 03:27:56;;;;;;;6.40;2.65;;;;;;;;;;4823823;29;20064;-45
2022/08/11 03:30:42;;;;;;;3.05;2.10;;;;;;;;;;4823812;29;20097;-46
2022/08/11 03:34:03;;;;;;;3.20;1.98;;;;;;;;;;4823879;29;20099;-44
2022/08/11 03:36:58;;;;;;;3.55;2.05;;;;;;;;;;4814265;29;20104;-46
2022/08/11 03:40:12;;;;;;;2.97;1.83;;;;;;;;;;4823820;29;20073;-46
2022/08/11 03:42:53;;;;;;;5.63;2.40;;;;;;;;;;4823155;29;20107;-47
2022/08/11 03:45:26;;;;;;;3.85;1.90;;;;;;;;;;4823482;29;20125;-46
2022/08/11 03:48:15;;;;;;;4.07;2.17;;;;;;;;;;4824197;29;20559;-45
2022/08/11 03:51:23;;;;;;;4.97;2.60;;;;;;;;;;4841743;29;20376;-49
2022/08/11 03:54:30;;;;;;;3.67;2.13;;;;;;;;;;4834969;29;20469;-48
2022/08/11 03:57:39;;;;;;;5.05;2.30;;;;;;;;;;4841726;29;20041;-48
2022/08/11 04:00:43;;;;;;;5.28;2.33;;;;;;;;;;4841651;29;20042;-45
2022/08/11 04:03:38;;;;;;;5.18;1.83;;;;;;;;;;4841658;29;20137;-45
2022/08/11 04:06:27;;;;;;;2.92;2.03;;;;;;;;;;4833876;29;20054;-47
2022/08/11 04:09:05;;;;;;;3.67;2.50;;;;;;;;;;4823395;29;20073;-43
2022/08/11 04:12:06;;;;;;;4.20;1.85;;;;;;;;;;4823263;29;20046;-45
2022/08/11 04:17:49;;;;;;;4.65;2.55;;;;;;;;;;4823525;29;20077;-46
2022/08/11 04:20:55;;;;;;;4.05;2.22;;;;;;;;;;4823410;29;20475;-46
2022/08/11 04:23:38;;;;;;;5.72;1.95;;;;;;;;;;4822815;29;20547;-45
2022/08/11 04:27:03;;;;;;;5.38;2.30;;;;;;;;;;4823031;29;20053;-46
2022/08/11 04:29:33;;;;;;;3.45;2.20;;;;;;;;;;4822956;29;20499;-50
2022/08/11 04:32:48;;;;;;;3.72;2.22;;;;;;;;;;4823223;29;20047;-45
2022/08/11 04:35:31;;;;;;;4.28;2.08;;;;;;;;;;4823153;29;20042;-45
2022/08/11 04:38:26;;;;;;;5.43;2.17;;;;;;;;;;4823191;29;20053;-44
2022/08/11 04:41:32;;;;;;;3.95;2.03;;;;;;;;;;4822054;29;20059;-46
2022/08/11 04:44:35;;;;;;;9.75;4.25;;;;;;;;;;4820303;29;20058;-46
2022/08/11 05:03:31;;;;;;;7.03;2.40;;;;;;;;;;4808153;29;20121;-44
2022/08/11 05:06:15;;;;;;;4.70;2.55;;;;;;;;;;4808175;29;20095;-45
2022/08/11 05:09:25;;;;;;;3.88;2.20;;;;;;;;;;4808070;29;20051;-47
2022/08/11 05:12:14;;;;;;;3.15;2.20;;;;;;;;;;4801512;29;20066;-44
2022/08/11 05:35:06;;;;;;;2.88;1.80;;;;;;;;;;4807522;29;20039;-45
2022/08/11 05:37:48;;;;;;;3.20;2.00;;;;;;;;;;4807849;29;20042;-44
2022/08/11 05:57:37;;;;;;;48.85;31.10;;;;;;;;;;4843554;29;20050;-44
2022/08/11 06:00:18;;;;;;;6.80;2.78;;;;;;;;;;4841691;29;20057;-48
2022/08/11 06:02:54;;;;;;;3.90;1.90;;;;;;;;;;4843619;29;20402;-44
2022/08/11 06:05:32;;;;;;;3.65;1.80;;;;;;;;;;4843619;29;20459;-45
2022/08/11 06:08:11;;;;;;;4.75;2.25;;;;;;;;;;4843553;29;20058;-46
2022/08/11 06:10:41;;;;;;;4.75;1.83;;;;;;;;;;4843383;29;20054;-47
2022/08/11 06:13:13;;;;;;;5.20;1.95;;;;;;;;;;4843365;29;20567;-44
2022/08/11 06:15:51;;;;;;;3.78;1.98;;;;;;;;;;4843378;29;20049;-45
2022/08/11 06:18:20;;;;;;;3.22;1.90;;;;;;;;;;4843430;29;20042;-47
2022/08/11 06:20:55;;;;;;;8.45;5.10;;;;;;;;;;4843437;29;20495;-45
2022/08/11 06:23:32;;;;;;;3.42;1.98;;;;;;;;;;4841588;29;20578;-45
2022/08/11 06:26:08;;;;;;;5.50;1.85;;;;;;;;;;4843368;29;20034;-50
2022/08/11 06:28:37;;;;;;;;;;;;;;;;;;4843512;29;20094;-46
2022/08/11 06:31:31;;;;;;;4.32;1.83;;;;;;;;;;4843513;29;20346;-47
2022/08/11 06:34:27;;;;;;;6.70;1.80;;;;;;;;;;4842334;29;20058;-46
2022/08/11 06:37:04;;;;;;;3.97;1.83;;;;;;;;;;4842833;29;20060;-44
2022/08/11 06:39:49;;;;;;;4.80;2.05;;;;;;;;;;4842745;29;20533;-45
2022/08/11 06:42:43;;;;;;;3.75;1.80;;;;;;;;;;4843094;29;20071;-47
2022/08/11 06:45:25;;;;;;;6.47;2.83;;;;;;;;;;4843048;29;20053;-49
2022/08/11 06:47:54;;;;;;;4.38;2.33;;;;;;;;;;4842302;29;20462;-46
2022/08/11 06:53:09;;;;;;;5.10;2.10;;;;;;;;;;4824584;29;20058;-45
2022/08/11 07:01:46;;;;;;;3.05;2.00;;;;;;;;;;4824361;29;20057;-45
2022/08/11 07:04:43;;;;;;;5.85;1.83;;;;;;;;;;4823203;29;20042;-43
2022/08/11 07:16:22;;;;;;;4.40;2.00;;;;;;;;;;4824060;29;20054;-44
2022/08/11 07:30:39;;;;;;;4.13;2.13;;;;;;;;;;4822773;29;20089;-44
2022/08/11 07:33:09;;;;;;;3.38;2.20;;;;;;;;;;4823876;29;20043;-42
2022/08/11 07:35:59;;;;;;;5.70;2.53;;;;;;;;;;4822880;29;20129;-43
2022/08/11 07:38:43;;;;;;;4.35;2.20;;;;;;;;;;4823819;29;20058;-51
2022/08/11 07:41:16;;;;;;;3.08;1.92;;;;;;;;;;4823690;29;20047;-45
2022/08/11 07:43:50;;;;;;;4.13;2.00;;;;;;;;;;4823386;29;20050;-44
2022/08/11 07:54:51;;;;;;;3.30;2.20;;;;;;;;;;4841836;29;20510;-41
2022/08/11 08:17:51;;;;;;;7.43;3.35;;;;;;;;;;4841407;29;20102;-53
2022/08/11 08:20:44;;;;;;;4.35;2.40;;;;;;;;;;4841316;29;20046;-45
2022/08/11 08:23:12;;;;;;;8.00;2.20;;;;;;;;;;4822629;29;20070;-47
2022/08/11 08:25:42;;;;;;;4.65;2.50;;;;;;;;;;4821547;29;20499;-51
2022/08/11 08:28:16;;;;;;;4.10;2.20;;;;;;;;;;4823156;29;20106;-46
2022/08/11 08:30:49;;;;;;;3.88;2.28;;;;;;;;;;4821451;29;20043;-44
2022/08/11 08:33:23;;;;;;;6.15;2.40;;;;;;;;;;4823106;29;20051;-49
2022/08/11 08:36:10;;;;;;;4.00;2.05;;;;;;;;;;4823134;29;20047;-48
2022/08/11 08:38:40;;;;;;;3.03;2.20;;;;;;;;;;4822885;29;20046;-50
2022/08/11 08:41:10;;;;;;;4.70;2.40;;;;;;;;;;4839929;29;20048;-40
2022/08/11 08:43:48;;;;;;;3.60;2.30;;;;;;;;;;4841041;29;20041;-39
2022/08/11 08:46:29;;;;;;;4.13;2.00;;;;;;;;;;4840419;29;20056;-41
2022/08/11 08:49:00;;;;;;;4.38;2.30;;;;;;;;;;4840968;29;20038;-44
2022/08/11 08:51:36;;;;;;;6.05;2.67;;;;;;;;;;4840859;29;20084;-43
2022/08/11 08:54:42;;;;;;;4.82;2.47;;;;;;;;;;4840677;29;20098;-46
2022/08/11 08:57:10;;;;;;;4.95;2.55;;;;;;;;;;4840935;29;20042;-46
2022/08/11 08:59:40;;;;;;;4.57;2.60;;;;;;;;;;4824520;29;20501;-44
2022/08/11 09:02:18;;;;;;;5.78;2.58;;;;;;;;;;4840882;29;20100;-45
2022/08/11 09:05:03;;;;;;;3.72;2.40;;;;;;;;;;4839496;29;20042;-52
2022/08/11 09:07:33;;;;;;;5.50;2.78;;;;;;;;;;4840755;29;20499;-47
2022/08/11 09:10:06;;;;;;;6.13;2.80;;;;;;;;;;4840634;29;20554;-44
2022/08/11 09:12:37;;;;;;;5.47;2.35;;;;;;;;;;4840677;29;20050;-45
2022/08/11 09:15:12;;;;;;;3.65;2.38;;;;;;;;;;4840801;29;20069;-45
2022/08/11 09:17:57;;;;;;;5.88;2.97;;;;;;;;;;4840663;29;20050;-44
2022/08/11 09:20:25;;;;;;;6.20;3.08;;;;;;;;;;4840649;29;20045;-46
2022/08/11 09:28:58;;;;;;;6.18;2.67;;;;;;;;;;4840693;29;20042;-44
2022/08/11 09:31:32;;;;;;;4.28;2.40;;;;;;;;;;4840503;29;20050;-44
2022/08/11 09:34:06;;;;;;;7.32;2.72;;;;;;;;;;4841828;29;20106;-48
2022/08/11 09:42:07;;;;;;;4.90;2.33;;;;;;;;;;4825573;29;20042;-42
2022/08/11 09:44:49;;;;;;;7.32;3.45;;;;;;;;;;4825029;29;20046;-50
2022/08/11 09:47:28;;;;;;;7.80;2.67;;;;;;;;;;4825411;29;20129;-47
2022/08/11 09:49:58;;;;;;;51.92;32.33;;;;;;;;;;4841190;29;20050;-43
2022/08/11 09:52:34;;;;;;;9.82;4.07;;;;;;;;;;4843887;29;20042;-43
2022/08/11 09:55:09;;;;;;;5.55;2.55;;;;;;;;;;4831911;29;20384;-43
2022/08/11 10:00:36;;;;;;;4.45;2.63;;;;;;;;;;4843385;29;20125;-46
2022/08/11 10:03:10;;;;;;;4.85;2.78;;;;;;;;;;4840236;29;20798;-51
2022/08/11 10:08:36;;;;;;;6.45;2.72;;;;;;;;;;4825185;29;20057;-43
2022/08/11 10:11:08;;;;;;;4.53;2.60;;;;;;;;;;4824604;29;20054;-46
2022/08/11 10:16:50;;;;;;;;;;;;;;;;;;4825342;29;20121;-49
2022/08/11 10:19:20;;;;;;;3.97;2.45;;;;;;;;;;4824811;29;19992;-44
2022/08/11 10:26:49;;;;;;;4.95;2.00;;;;;;;;;;4824785;29;20055;-43
2022/08/11 10:27:27;;;;;;;6.65;3.83;;;;;;;;;;4824845;29;20503;-47
2022/08/11 10:36:08;;;;;;;7.50;2.85;;;;;;;;;;4824663;29;20500;-47
2022/08/11 10:38:45;;;;;;;4.53;2.30;;;;;;;;;;4824474;29;20082;-43
2022/08/11 10:44:01;;;;;;;3.53;2.28;;;;;;;;;;4824556;29;20061;-43
2022/08/11 10:49:19;;;;;;;5.85;2.33;;;;;;;;;;4835188;29;20082;-51
2022/08/11 11:00:13;;;;;;;4.68;2.53;;;;;;;;;;4842509;29;20071;-44
2022/08/11 11:02:44;;;;;;;4.13;2.08;;;;;;;;;;4842399;29;20089;-54
2022/08/11 11:05:32;;;;;;;5.63;1.88;;;;;;;;;;4841801;29;20038;-43
2022/08/11 11:11:03;;;;;;;4.45;1.90;;;;;;;;;;4842375;29;20053;-53
2022/08/11 11:19:14;;;;;;;3.45;2.13;;;;;;;;;;4842435;29;20046;-47
2022/08/11 11:21:42;;;;;;;3.83;1.92;;;;;;;;;;4842172;29;20076;-48
2022/08/11 11:24:38;;;;;;;3.83;2.25;;;;;;;;;;4841934;29;20514;-52
2022/08/11 11:27:31;;;;;;;10.50;2.38;;;;;;;;;;4842030;29;20099;-49
2022/08/11 11:30:10;;;;;;;31.10;24.42;;;;;;;;;;4842334;29;20120;-48
2022/08/11 11:32:53;;;;;;;7.22;4.38;;;;;;;;;;4842005;29;20085;-53
2022/08/11 11:35:46;;;;;;;22.10;11.50;;;;;;;;;;4842028;29;20117;-43
2022/08/11 11:38:14;;;;;;;7.13;2.55;;;;;;;;;;4841934;29;20462;-50
2022/08/11 11:40:42;;;;;;;3.95;2.15;;;;;;;;;;4841886;29;20057;-51
2022/08/11 11:43:10;;;;;;;4.03;2.35;;;;;;;;;;4841601;29;20410;-51
2022/08/11 11:45:40;;;;;;;6.07;2.20;;;;;;;;;;4840103;29;20057;-52
2022/08/11 11:48:10;;;;;;;5.43;2.42;;;;;;;;;;4837225;29;20626;-50
2022/08/11 11:50:39;;;;;;;5.40;2.55;;;;;;;;;;4821201;29;20100;-51
2022/08/11 11:53:08;;;;;;;4.63;2.58;;;;;;;;;;4821681;29;20137;-50
2022/08/11 11:55:36;;;;;;;5.45;2.22;;;;;;;;;;4821818;29;20069;-44
2022/08/11 12:03:44;;;;;;;4.68;2.60;;;;;;;;;;4821724;29;20553;-51
2022/08/11 12:06:15;;;;;;;4.70;2.15;;;;;;;;;;4821537;29;20499;-45
2022/08/11 12:08:46;;;;;;;3.97;2.25;;;;;;;;;;4821580;29;20054;-54
2022/08/11 12:14:04;;;;;;;2.92;2.08;;;;;;;;;;4802441;29;20412;-51
2022/08/11 12:16:39;;;;;;;5.22;1.90;;;;;;;;;;4823171;29;20048;-48
2022/08/11 12:19:12;;;;;;;4.32;2.10;;;;;;;;;;4823360;29;20092;-47
2022/08/11 12:27:19;;;;;;;4.45;2.20;;;;;;;;;;4823041;29;20457;-46
2022/08/11 12:27:20;;;;;;;2.85;1.50;;;;;;;;;;4822908;29;20118;-51
2022/08/11 12:30:12;;;;;;;4.50;1.70;;;;;;;;;;4823141;29;20053;-42
2022/08/11 12:32:41;;;;;;;4.05;2.10;;;;;;;;;;4822521;29;20054;-42
2022/08/11 12:35:10;;;;;;;4.72;1.73;;;;;;;;;;4823065;29;20106;-42
2022/08/11 12:38:01;;;;;;;3.20;2.05;;;;;;;;;;4822651;29;20533;-49
2022/08/11 12:46:36;;;;;;;4.13;1.90;;;;;;;;;;4823061;29;20046;-42
2022/08/11 12:52:13;;;;;;;3.13;1.65;;;;;;;;;;4841087;29;20077;-44
2022/08/11 12:54:56;;;;;;;5.63;1.90;;;;;;;;;;4831367;29;20408;-53
2022/08/11 13:06:02;;;;;;;4.90;2.05;;;;;;;;;;4822903;29;20034;-43
2022/08/11 13:08:34;;;;;;;3.90;2.47;;;;;;;;;;4823653;29;20077;-43
2022/08/11 13:13:51;;;;;;;5.20;1.80;;;;;;;;;;4826065;29;20511;-43
2022/08/11 13:19:22;;;;;;;3.70;1.63;;;;;;;;;;4825900;29;20042;-44
2022/08/11 13:21:53;;;;;;;6.57;1.80;;;;;;;;;;4808350;29;20538;-42
2022/08/11 13:24:22;;;;;;;4.57;2.13;;;;;;;;;;4823898;29;20051;-44
2022/08/11 13:26:50;;;;;;;4.05;1.60;;;;;;;;;;4824050;29;20604;-44
2022/08/11 13:29:22;;;;;;;3.92;1.48;;;;;;;;;;4822976;29;20119;-43
2022/08/11 13:31:54;;;;;;;7.25;1.67;;;;;;;;;;4823564;29;20057;-43
2022/08/11 13:34:25;;;;;;;4.18;1.75;;;;;;;;;;4823872;29;20471;-43
2022/08/11 13:36:55;;;;;;;6.03;1.98;;;;;;;;;;4825587;29;20546;-47
2022/08/11 13:39:28;;;;;;;9.35;4.97;;;;;;;;;;4825677;29;20407;-45
2022/08/11 13:41:59;;;;;;;5.47;2.00;;;;;;;;;;4809678;29;20050;-50
2022/08/11 13:44:30;;;;;;;5.82;2.03;;;;;;;;;;4825444;29;20130;-44
2022/08/11 13:47:02;;;;;;;4.32;1.95;;;;;;;;;;4825373;29;20054;-48
2022/08/11 13:49:36;;;;;;;4.85;1.65;;;;;;;;;;4836838;29;20502;-43
2022/08/11 13:52:13;;;;;;;4.05;1.92;;;;;;;;;;4843708;29;20114;-47
2022/08/11 13:54:43;;;;;;;3.72;1.90;;;;;;;;;;4843515;29;20526;-45
2022/08/11 13:57:13;;;;;;;5.55;1.70;;;;;;;;;;4843719;29;20044;-46
2022/08/11 14:00:08;;;;;;;4.47;2.00;;;;;;;;;;4843673;29;20069;-43
2022/08/11 14:02:51;;;;;;;3.45;2.00;;;;;;;;;;4843215;29;20050;-44
2022/08/11 14:05:28;;;;;;;4.90;2.30;;;;;;;;;;4843459;29;20507;-47
2022/08/11 14:08:01;;;;;;;6.35;2.03;;;;;;;;;;4843363;29;20088;-45
2022/08/11 14:10:31;;;;;;;5.70;1.95;;;;;;;;;;4843218;29;20502;-51
2022/08/11 14:15:50;;;;;;;4.00;1.70;;;;;;;;;;4843587;29;20058;-50
2022/08/11 14:18:25;;;;;;;3.75;1.88;;;;;;;;;;4843402;29;20142;-47
2022/08/11 14:23:53;;;;;;;9.27;1.80;;;;;;;;;;4843079;29;20050;-42
2022/08/11 14:26:22;;;;;;;5.78;3.25;;;;;;;;;;4842865;29;20510;-47
2022/08/11 14:29:12;;;;;;;5.60;2.60;;;;;;;;;;4843040;29;20069;-43
2022/08/11 14:31:57;;;;;;;6.15;1.90;;;;;;;;;;4842964;29;20392;-51
2022/08/11 14:34:28;;;;;;;4.10;1.85;;;;;;;;;;4841372;29;20073;-43
2022/08/11 14:36:59;;;;;;;5.05;2.20;;;;;;;;;;4841808;29;20054;-43
2022/08/11 14:39:34;;;;;;;4.20;2.05;;;;;;;;;;4834790;29;20058;-47
2022/08/11 14:47:44;;;;;;;4.85;2.10;;;;;;;;;;4824482;29;20043;-44
2022/08/11 14:50:21;;;;;;;4.10;1.88;;;;;;;;;;4826082;29;20047;-44
2022/08/11 14:52:53;;;;;;;4.00;2.20;;;;;;;;;;4824428;29;20074;-43
2022/08/11 14:58:14;;;;;;;4.07;2.47;;;;;;;;;;4823396;29;20080;-42
2022/08/11 15:00:42;;;;;;;5.30;2.05;;;;;;;;;;4824200;29;20072;-45
2022/08/11 15:03:12;;;;;;;3.35;1.83;;;;;;;;;;4824601;29;20047;-45
2022/08/11 15:05:51;;;;;;;3.15;1.75;;;;;;;;;;4824420;29;20475;-52
2022/08/11 15:08:54;;;;;;;3.08;1.80;;;;;;;;;;4824245;29;20047;-45
2022/08/11 15:14:11;;;;;;;5.35;1.95;;;;;;;;;;4824397;29;20078;-45
2022/08/11 15:19:30;;;;;;;5.65;1.63;;;;;;;;;;4824071;29;20041;-43
2022/08/11 15:24:57;;;;;;;5.68;1.73;;;;;;;;;;4824223;29;20047;-43
2022/08/11 15:38:47;;;;;;;5.63;2.00;;;;;;;;;;4823832;29;20068;-44
2022/08/11 15:47:35;;;;;;;3.75;1.80;;;;;;;;;;4823775;29;20406;-43
2022/08/11 15:50:04;;;;;;;4.25;2.08;;;;;;;;;;4839808;29;20441;-45
2022/08/11 15:52:58;;;;;;;6.85;2.03;;;;;;;;;;4826876;29;20042;-44
2022/08/11 15:55:28;;;;;;;2.65;1.67;;;;;;;;;;4841685;29;20529;-43
2022/08/11 16:07:02;;;;;;;3.30;1.58;;;;;;;;;;4841521;29;20046;-44
2022/08/11 16:09:47;;;;;;;7.63;1.50;;;;;;;;;;4841098;29;20057;-46
2022/08/11 16:12:27;;;;;;;3.13;2.20;;;;;;;;;;4841308;29;20076;-43
2022/08/11 16:18:02;;;;;;;1.95;1.35;;;;;;;;;;4841126;29;20084;-44
2022/08/11 16:20:30;;;;;;;6.45;1.85;;;;;;;;;;4841051;29;20038;-43
2022/08/11 16:23:03;;;;;;;4.22;1.60;;;;;;;;;;4841170;29;20077;-43
2022/08/11 16:25:34;;;;;;;;;;;;;;;;;;4841599;29;20044;-44
2022/08/11 16:28:23;;;;;;;4.80;1.70;;;;;;;;;;4841308;29;20317;-43
2022/08/11 16:30:52;;;;;;;4.07;1.55;;;;;;;;;;4841128;29;20046;-43
2022/08/11 16:33:19;;;;;;;3.70;1.75;;;;;;;;;;4840955;29;20562;-43
2022/08/11 16:38:57;;;;;;;3.75;1.52;;;;;;;;;;4841437;29;20065;-44
2022/08/11 16:47:12;;;;;;;10.57;5.00;;;;;;;;;;4826722;29;20562;-43
2022/08/11 16:49:48;;;;;;;13.00;6.47;;;;;;;;;;4826435;29;20407;-46
2022/08/11 16:52:21;;;;;;;4.15;1.80;;;;;;;;;;4826105;29;20050;-43
2022/08/11 16:54:50;;;;;;;3.90;1.67;;;;;;;;;;4826364;29;20107;-43
2022/08/11 17:00:16;;;;;;;5.80;1.48;;;;;;;;;;4826090;29;20042;-44
2022/08/11 17:14:20;;;;;;;13.73;8.38;;;;;;;;;;4826075;29;20046;-43
2022/08/11 17:17:06;;;;;;;4.35;2.95;;;;;;;;;;4826012;29;20046;-44
2022/08/11 17:19:37;;;;;;;3.95;1.25;;;;;;;;;;4826099;29;20049;-48
2022/08/11 17:25:16;;;;;;;4.25;1.75;;;;;;;;;;4825996;29;20070;-44
2022/08/11 17:27:47;;;;;;;;;;;;;;;;;;4826548;29;20051;-43
2022/08/11 17:30:15;;;;;;;5.18;1.90;;;;;;;;;;4823492;29;20389;-42
2022/08/11 17:35:40;;;;;;;2.90;1.67;;;;;;;;;;4824970;29;20065;-40
2022/08/11 17:38:17;;;;;;;5.57;1.77;;;;;;;;;;4825881;29;20081;-40
2022/08/11 17:49:36;;;;;;;2.97;1.73;;;;;;;;;;4838276;29;20038;-43
2022/08/11 18:00:57;;;;;;;5.53;2.08;;;;;;;;;;4843780;29;20076;-43
2022/08/11 18:03:38;;;;;;;6.50;1.83;;;;;;;;;;4843693;29;20053;-48
2022/08/11 18:06:08;;;;;;;4.03;1.60;;;;;;;;;;4843764;29;20042;-50
